Aérodrome :







RETROUVEZ-NOUS SUR...

 
LOGIN :

S'inscrire | Disclaimer

   EN    FR    IT 

 









Légende :    VFR   VFR Marginal   IFR   IFR Intensif   IFR Très Intensif
Visi : 
Plafond : 
>= 8 km
>= 3000ft
5 à 8 km
1000 à 3000 ft
1500m à 5 km
500 à 1000 ft
800 à 1500m
200 à 500 ft
< 800m
< 200 ft
Symboles :   Orages  Brouillard  Fortes neiges  Fortes précipitations  Vent > 20 kt






- Altitude de l'aérodrome : 377 ft
- Code IATA : YPS


CYPD - Port Hawkesbury

DERNIER METAR :
  • 241800Z AUTO 16011G16KT 130V210 9SM FEW026 05/M01 A3006 RMK SLP184

METARs EXPIRÉS :
  • 241700Z AUTO 17008G15KT 140V210 9SM CLR 05/M01 A3007 RMK SLP189
  • 241600Z AUTO 18010KT 9SM FEW013 04/M00 A3010 RMK SLP199
  • 241547Z AUTO 18008KT 9SM SCT013 03/00 A3010 RMK SLP201

TAF N/A



MET'MAP, la Météo Aéronautique d'un coup d'oeil ! - Copyright ORBIFLY Décembre 2007 - Disclaimer

ORBIFLY MET'MAP TEAM :

Programmation & Développement : Alexandra Zaïnal
Sur une idée originale de : Baudouin d'Aumeries
Assistance à la programmation : Marc-Olivier Méhu
Soutien technique & logistique : Manuel Goepfert

Contact : metmap@orbifly.com




SOURCES & CREDITS :

   NOAA